createdAt,value
2023-01-03T00:01:25.597Z,98302.00
2023-01-03T00:03:56.286Z,98323.69
2023-01-03T00:06:28.805Z,98345.13
2023-01-03T00:08:57.535Z,98344.13
2023-01-03T00:11:49.342Z,98347.47
2023-01-03T00:14:28.139Z,98351.72
2023-01-03T00:16:59.943Z,98358.81
2023-01-03T00:19:28.981Z,98205.72
2023-01-03T00:21:56.046Z,98357.00
2023-01-03T00:24:23.075Z,98330.63
2023-01-03T00:26:50.436Z,98240.63
2023-01-03T00:29:18.178Z,98207.50
2023-01-03T00:31:44.837Z,98344.44
2023-01-03T00:34:11.628Z,98347.88
2023-01-03T00:36:38.830Z,98290.94
2023-01-03T00:39:06.270Z,98342.63
2023-01-03T00:41:33.214Z,98266.63
2023-01-03T00:44:00.358Z,98359.19
2023-01-03T00:46:27.128Z,98318.88
2023-01-03T00:48:53.804Z,98348.00
2023-01-03T00:51:26.315Z,98347.31
2023-01-03T00:53:55.983Z,98337.22
2023-01-03T00:56:34.055Z,98327.16
2023-01-03T00:59:01.997Z,98349.25
2023-01-03T01:01:42.477Z,98334.75
2023-01-03T01:04:20.518Z,98337.38
2023-01-03T01:06:52.353Z,98334.88
2023-01-03T01:09:25.789Z,98338.59
2023-01-03T01:11:52.774Z,98288.88
2023-01-03T01:14:21.286Z,98330.03
2023-01-03T01:17:01.252Z,98327.94
2023-01-03T01:19:35.483Z,98296.94
2023-01-03T01:22:02.834Z,98340.66
2023-01-03T01:24:29.877Z,98348.81
2023-01-03T01:26:56.501Z,98347.13
2023-01-03T01:29:23.280Z,98360.81
2023-01-03T01:31:50.352Z,98245.75
2023-01-03T01:34:17.656Z,98275.56
2023-01-03T01:36:46.039Z,98389.47
2023-01-03T01:39:12.579Z,98403.31
2023-01-03T01:41:58.902Z,98401.53
2023-01-03T01:44:55.071Z,98395.56
2023-01-03T01:47:36.873Z,98402.59
2023-01-03T01:50:18.560Z,98399.97
2023-01-03T01:52:54.402Z,98413.63
2023-01-03T01:55:25.988Z,98398.13
2023-01-03T01:57:53.847Z,98432.22
2023-01-03T02:00:20.805Z,98407.09
2023-01-03T02:02:50.775Z,98257.72
2023-01-03T02:05:20.138Z,98381.03
2023-01-03T02:07:51.761Z,98416.19
2023-01-03T02:10:26.487Z,98417.00
2023-01-03T02:13:20.052Z,98411.19
2023-01-03T02:15:59.811Z,98402.25
2023-01-03T02:18:41.886Z,98304.41
2023-01-03T02:21:30.036Z,98416.56
2023-01-03T02:24:15.208Z,98426.94
2023-01-03T02:27:00.405Z,98435.63
2023-01-03T02:29:36.609Z,98428.84
2023-01-03T02:32:33.664Z,98422.78
2023-01-03T02:35:14.748Z,98429.69
2023-01-03T02:38:07.288Z,98414.22
2023-01-03T02:40:46.050Z,98292.94
2023-01-03T02:43:48.339Z,98261.94
2023-01-03T02:46:33.239Z,98412.25
2023-01-03T02:49:24.380Z,98422.16
2023-01-03T02:51:55.270Z,98404.50
2023-01-03T02:55:07.964Z,98340.13
2023-01-03T02:57:42.428Z,98379.66
2023-01-03T03:00:14.015Z,98423.41
2023-01-03T03:02:44.289Z,98337.31
2023-01-03T03:05:16.144Z,98430.44
2023-01-03T03:07:42.804Z,98298.47
2023-01-03T03:10:29.850Z,98427.94
2023-01-03T03:13:15.080Z,98434.97
2023-01-03T03:16:03.090Z,98439.50
2023-01-03T03:18:56.488Z,98438.81
2023-01-03T03:21:45.724Z,98289.28
2023-01-03T03:24:38.003Z,98448.88
2023-01-03T03:27:28.852Z,98445.78
2023-01-03T03:29:58.988Z,98441.06
2023-01-03T03:32:28.449Z,98444.88
2023-01-03T03:34:59.227Z,98309.88
2023-01-03T03:37:27.914Z,98321.16
2023-01-03T03:40:14.334Z,98450.53
2023-01-03T03:43:14.139Z,98450.34
2023-01-03T03:46:23.607Z,98449.63
2023-01-03T03:49:18.085Z,98461.75
2023-01-03T03:51:48.049Z,98328.88
2023-01-03T03:54:19.287Z,98322.38
2023-01-03T03:56:52.044Z,98442.53
2023-01-03T03:59:21.980Z,98457.50
2023-01-03T04:01:50.009Z,98463.66
2023-01-03T04:04:27.300Z,98469.03
2023-01-03T04:06:54.191Z,98466.69
2023-01-03T04:09:21.041Z,98463.13
2023-01-03T04:11:47.657Z,98461.44
2023-01-03T04:14:14.301Z,98317.38
2023-01-03T04:16:41.176Z,98466.34
2023-01-03T04:19:08.608Z,98339.97
2023-01-03T04:21:36.620Z,98456.16
2023-01-03T04:24:06.491Z,98432.44
2023-01-03T04:26:33.118Z,98297.03
2023-01-03T04:28:59.809Z,98468.78
2023-01-03T04:31:26.516Z,98469.00
2023-01-03T04:33:54.105Z,98370.06
2023-01-03T04:36:21.060Z,98409.22
2023-01-03T04:38:48.358Z,98463.72
2023-01-03T04:41:15.070Z,98485.03
2023-01-03T04:44:00.161Z,98485.25
2023-01-03T04:46:27.223Z,98487.34
2023-01-03T04:48:54.077Z,98429.25
2023-01-03T04:51:20.808Z,98437.81
2023-01-03T04:53:47.351Z,98494.47
2023-01-03T04:56:14.001Z,98486.88
2023-01-03T04:58:42.856Z,98355.44
2023-01-03T05:01:10.049Z,98323.50
2023-01-03T05:03:37.982Z,98495.72
2023-01-03T05:06:09.308Z,98359.09
2023-01-03T05:08:35.870Z,98505.13
2023-01-03T05:11:03.526Z,98312.22
2023-01-03T05:13:30.163Z,98376.00
2023-01-03T05:15:56.922Z,98456.19
2023-01-03T05:18:23.641Z,98502.88
2023-01-03T05:21:09.328Z,98444.16
2023-01-03T05:23:54.327Z,98515.72
2023-01-03T05:26:21.815Z,98521.16
2023-01-03T05:28:52.419Z,98516.19
2023-01-03T05:31:19.655Z,98508.47
2023-01-03T05:33:46.745Z,98504.53
2023-01-03T05:36:13.349Z,98504.91
2023-01-03T05:38:39.929Z,98496.78
2023-01-03T05:41:06.924Z,98515.72
2023-01-03T05:43:33.598Z,98508.81
2023-01-03T05:46:00.353Z,98449.22
2023-01-03T05:48:27.047Z,98440.31
2023-01-03T05:50:57.516Z,98527.72
2023-01-03T05:53:24.917Z,98554.78
2023-01-03T05:55:51.510Z,98528.88
2023-01-03T05:58:18.281Z,98525.66
2023-01-03T06:00:44.837Z,98530.16
2023-01-03T06:03:13.602Z,98539.31
2023-01-03T06:05:44.712Z,98523.97
2023-01-03T06:08:16.392Z,98542.75
2023-01-03T06:10:43.001Z,98545.69
2023-01-03T06:13:09.684Z,98542.59
2023-01-03T06:15:36.306Z,98543.84
2023-01-03T06:18:02.959Z,98398.44
2023-01-03T06:20:31.417Z,98540.13
2023-01-03T06:22:58.333Z,98544.06
2023-01-03T06:25:25.150Z,98549.59
2023-01-03T06:27:51.880Z,98547.81
2023-01-03T06:30:18.833Z,98451.75
2023-01-03T06:32:45.576Z,98546.28
2023-01-03T06:35:17.454Z,98416.38
2023-01-03T06:37:44.159Z,98550.56
2023-01-03T06:40:11.291Z,98548.06
2023-01-03T06:42:44.345Z,98529.00
2023-01-03T06:45:31.640Z,98554.78
2023-01-03T06:48:29.564Z,98461.44
2023-01-03T06:51:14.652Z,98530.69
2023-01-03T06:53:42.889Z,98373.53
2023-01-03T06:56:10.201Z,98599.81
2023-01-03T06:58:36.834Z,98567.56
2023-01-03T07:01:04.732Z,98578.03
2023-01-03T07:03:32.288Z,98469.72
2023-01-03T07:05:59.396Z,98592.59
2023-01-03T07:08:25.959Z,98591.66
2023-01-03T07:10:52.563Z,98595.94
2023-01-03T07:13:37.715Z,98599.16
2023-01-03T07:16:04.486Z,98426.03
2023-01-03T07:18:31.623Z,98600.72
2023-01-03T07:20:58.227Z,98605.94
2023-01-03T07:23:24.879Z,98547.13
2023-01-03T07:25:55.159Z,98532.13
2023-01-03T07:28:21.759Z,98614.59
2023-01-03T07:30:48.415Z,98620.78
2023-01-03T07:33:15.955Z,98618.06
2023-01-03T07:35:43.073Z,98529.25
2023-01-03T07:38:12.057Z,98465.97
2023-01-03T07:40:39.440Z,98515.91
2023-01-03T07:43:24.579Z,98551.59
2023-01-03T07:45:51.365Z,98629.94
2023-01-03T07:48:18.040Z,98648.06
2023-01-03T07:50:44.725Z,98634.34
2023-01-03T07:53:16.588Z,98631.50
2023-01-03T07:55:47.193Z,98654.06
2023-01-03T07:58:13.834Z,98639.94
2023-01-03T08:00:41.170Z,98645.06
2023-01-03T08:03:11.160Z,98625.91
2023-01-03T08:05:38.390Z,98516.41
2023-01-03T08:08:06.499Z,98637.09
2023-01-03T08:10:52.163Z,98463.94
2023-01-03T08:13:19.199Z,98644.03
2023-01-03T08:15:55.148Z,98645.56
2023-01-03T08:18:26.843Z,98649.81
2023-01-03T08:20:56.413Z,98649.75
2023-01-03T08:23:23.654Z,98644.41
2023-01-03T08:25:50.408Z,98646.91
2023-01-03T08:28:17.186Z,98652.13
2023-01-03T08:30:49.408Z,98599.59
2023-01-03T08:33:18.524Z,98653.53
2023-01-03T08:35:53.468Z,98451.03
2023-01-03T08:38:27.022Z,98590.47
2023-01-03T08:40:54.427Z,98661.19
2023-01-03T08:43:21.556Z,98660.75
2023-01-03T08:45:49.048Z,98516.56
2023-01-03T08:48:19.369Z,98567.56
2023-01-03T08:50:46.627Z,98673.66
2023-01-03T08:53:13.172Z,98648.06
2023-01-03T08:55:39.749Z,98662.84
2023-01-03T08:58:08.868Z,98672.53
2023-01-03T09:00:37.249Z,98557.28
2023-01-03T09:03:04.305Z,98681.03
2023-01-03T09:05:31.114Z,98612.81
2023-01-03T09:07:58.280Z,98541.06
2023-01-03T09:10:25.734Z,98669.53
2023-01-03T09:12:52.376Z,98675.25
2023-01-03T09:15:19.274Z,98685.22
2023-01-03T09:17:47.366Z,98590.28
2023-01-03T09:20:15.435Z,98690.13
2023-01-03T09:22:42.104Z,98696.47
2023-01-03T09:25:09.553Z,98646.00
2023-01-03T09:27:36.446Z,98508.09
2023-01-03T09:30:04.069Z,98706.34
2023-01-03T09:32:30.726Z,98706.00
2023-01-03T09:34:57.360Z,98697.56
2023-01-03T09:37:23.956Z,98624.63
2023-01-03T09:39:50.566Z,98573.84
2023-01-03T09:42:42.969Z,98665.31
2023-01-03T09:45:15.098Z,98693.50
2023-01-03T09:47:42.967Z,98701.34
2023-01-03T09:50:31.910Z,98688.22
2023-01-03T09:53:25.133Z,98710.00
2023-01-03T09:56:19.183Z,98715.09
2023-01-03T09:59:12.598Z,98610.41
2023-01-03T10:02:40.091Z,98700.34
2023-01-03T10:05:27.449Z,98689.25
2023-01-03T10:08:22.647Z,98695.91
2023-01-03T10:11:09.373Z,98648.44
2023-01-03T10:13:57.238Z,98627.88
2023-01-03T10:16:25.875Z,98700.16
2023-01-03T10:18:58.664Z,98706.44
2023-01-03T10:21:40.389Z,98541.78
2023-01-03T10:24:30.704Z,98689.66
2023-01-03T10:27:07.708Z,98587.41
2023-01-03T10:29:34.966Z,98691.00
2023-01-03T10:32:07.212Z,98567.81
2023-01-03T10:34:33.788Z,98678.91
2023-01-03T10:37:03.888Z,98684.50
2023-01-03T10:39:31.834Z,98541.84
2023-01-03T10:41:59.946Z,98675.94
2023-01-03T10:44:29.197Z,98677.34
2023-01-03T10:47:08.942Z,98677.16
2023-01-03T10:49:36.007Z,98655.81
2023-01-03T10:52:18.771Z,98620.94
2023-01-03T10:55:04.380Z,98669.72
2023-01-03T10:57:40.035Z,98541.63
2023-01-03T11:00:25.116Z,98662.00
2023-01-03T11:02:52.572Z,98659.38
2023-01-03T11:05:26.846Z,98666.56
2023-01-03T11:07:56.282Z,98665.59
2023-01-03T11:10:25.217Z,98659.94
2023-01-03T11:12:52.181Z,98660.75
2023-01-03T11:15:37.557Z,98642.16
2023-01-03T11:18:16.288Z,98625.25
2023-01-03T11:21:23.434Z,98656.81
2023-01-03T11:24:21.762Z,98652.22
2023-01-03T11:26:59.731Z,98646.00
2023-01-03T11:29:53.763Z,98644.50
2023-01-03T11:32:23.237Z,98638.88
2023-01-03T11:37:56.075Z,98648.81
2023-01-03T11:40:32.108Z,98595.78
2023-01-03T11:43:26.430Z,98637.91
2023-01-03T11:46:30.930Z,98633.06
2023-01-03T11:49:09.884Z,98635.06
2023-01-03T11:51:50.441Z,98596.19
2023-01-03T11:54:40.107Z,98633.84
2023-01-03T11:57:26.085Z,98626.38
2023-01-03T12:00:00.678Z,98632.06
2023-01-03T12:02:45.575Z,98642.31
2023-01-03T12:05:33.569Z,98634.69
2023-01-03T12:08:20.257Z,98635.91
2023-01-03T12:11:03.620Z,98638.31
2023-01-03T12:13:56.540Z,98638.16
2023-01-03T12:16:32.254Z,98632.06
2023-01-03T12:19:25.269Z,98646.31
2023-01-03T12:22:10.058Z,98644.50
2023-01-03T12:24:48.115Z,98650.38
2023-01-03T12:27:22.077Z,98650.03
2023-01-03T12:30:05.380Z,98677.31
2023-01-03T12:32:39.660Z,98585.69
2023-01-03T12:35:18.767Z,98637.63
2023-01-03T12:37:48.943Z,98600.88
2023-01-03T12:40:34.293Z,98644.63
2023-01-03T12:43:27.238Z,98645.84
2023-01-03T12:46:00.564Z,98558.69
2023-01-03T12:48:42.193Z,98635.81
2023-01-03T12:51:09.021Z,98627.50
2023-01-03T12:53:57.725Z,98634.84
2023-01-03T12:56:36.623Z,98625.31
2023-01-03T12:59:39.040Z,98534.78
2023-01-03T13:02:43.557Z,98626.66
2023-01-03T13:05:27.952Z,98620.88
2023-01-03T13:08:11.867Z,98624.78
2023-01-03T13:10:42.509Z,98621.91
2023-01-03T13:13:15.799Z,98621.22
2023-01-03T13:15:42.731Z,98621.44
2023-01-03T13:18:21.446Z,98617.56
2023-01-03T13:20:58.207Z,98561.09
2023-01-03T13:23:33.972Z,98619.19
2023-01-03T13:26:04.824Z,98618.03
2023-01-03T13:28:33.736Z,98616.72
2023-01-03T13:31:17.196Z,98618.09
2023-01-03T13:33:55.557Z,98609.78
2023-01-03T13:36:23.934Z,98616.97
2023-01-03T13:38:51.542Z,98411.47
2023-01-03T13:41:37.885Z,98612.84
2023-01-03T13:44:19.681Z,98609.63
2023-01-03T13:46:47.300Z,98530.03
2023-01-03T13:49:20.498Z,98523.91
2023-01-03T13:51:51.509Z,98552.50
2023-01-03T13:54:17.985Z,98623.25
2023-01-03T13:56:44.614Z,98617.88
2023-01-03T13:59:14.106Z,98617.50
2023-01-03T14:02:17.280Z,98623.91
2023-01-03T14:05:08.297Z,98630.69
2023-01-03T14:07:43.850Z,98626.72
2023-01-03T14:10:21.698Z,98633.25
2023-01-03T14:13:26.076Z,98634.56
2023-01-03T14:16:06.939Z,98638.47
2023-01-03T14:18:35.082Z,98633.81
2023-01-03T14:21:02.402Z,98638.53
2023-01-03T14:23:58.849Z,98649.38
2023-01-03T14:26:19.366Z,98617.84
2023-01-03T14:28:51.636Z,98636.97
2023-01-03T14:31:25.304Z,98624.81
2023-01-03T14:34:00.778Z,98627.81
2023-01-03T14:36:28.508Z,98642.63
2023-01-03T14:39:00.412Z,98626.00
2023-01-03T14:41:28.696Z,98632.56
2023-01-03T14:44:07.198Z,98631.38
2023-01-03T14:46:36.056Z,98631.19
2023-01-03T14:49:07.105Z,98579.88
2023-01-03T14:51:35.670Z,98623.97
2023-01-03T14:54:04.079Z,98626.50
2023-01-03T14:56:34.226Z,98634.22
2023-01-03T14:59:01.346Z,98633.53
2023-01-03T15:01:28.741Z,98636.16
2023-01-03T15:03:56.337Z,98606.66
2023-01-03T15:06:29.738Z,98499.16
2023-01-03T15:09:01.623Z,98495.00
2023-01-03T15:11:55.966Z,98517.66
2023-01-03T15:14:32.057Z,98636.25
2023-01-03T15:17:05.696Z,98631.84
2023-01-03T15:19:33.973Z,98637.75
2023-01-03T15:22:33.060Z,98641.19
2023-01-03T15:25:08.729Z,98644.25
2023-01-03T15:27:38.322Z,98647.41
2023-01-03T15:30:23.489Z,98651.53
2023-01-03T15:32:53.051Z,98651.38
2023-01-03T15:35:41.459Z,98661.72
2023-01-03T15:38:32.352Z,98616.63
2023-01-03T15:41:00.252Z,98599.19
2023-01-03T15:43:33.477Z,98529.94
2023-01-03T15:46:12.447Z,98669.19
2023-01-03T15:48:41.223Z,98579.88
2023-01-03T15:51:07.903Z,98531.25
2023-01-03T15:53:44.895Z,98679.34
2023-01-03T15:56:18.149Z,98685.13
2023-01-03T15:58:45.818Z,98632.03
2023-01-03T16:01:13.770Z,98684.28
2023-01-03T16:03:40.768Z,98701.16
2023-01-03T16:06:07.459Z,98658.94
2023-01-03T16:08:39.028Z,98693.25
2023-01-03T16:11:12.542Z,98698.06
2023-01-03T16:13:45.162Z,98679.16
2023-01-03T16:16:12.958Z,98655.56
2023-01-03T16:18:49.040Z,98693.97
2023-01-03T16:21:15.904Z,98574.19
2023-01-03T16:23:42.620Z,98702.59
2023-01-03T16:26:09.256Z,98560.28
2023-01-03T16:28:35.883Z,98701.66
2023-01-03T16:31:23.690Z,98517.41
2023-01-03T16:33:51.445Z,98606.66
2023-01-03T16:36:39.452Z,98706.22
2023-01-03T16:39:13.914Z,98695.25
2023-01-03T16:41:40.573Z,98692.13
2023-01-03T16:44:07.223Z,98538.25
2023-01-03T16:46:36.068Z,98595.22
2023-01-03T16:49:02.962Z,98666.38
2023-01-03T16:51:33.490Z,98700.78
2023-01-03T16:54:00.715Z,98660.13
2023-01-03T16:56:27.383Z,98523.56
2023-01-03T16:58:53.973Z,98551.59
2023-01-03T17:01:20.917Z,98708.69
2023-01-03T17:03:47.594Z,98716.75
2023-01-03T17:06:37.808Z,98656.59
2023-01-03T17:09:16.701Z,98703.59
2023-01-03T17:11:47.063Z,98712.53
2023-01-03T17:14:19.468Z,98712.81
2023-01-03T17:16:46.671Z,98694.19
2023-01-03T17:20:02.587Z,98719.69
2023-01-03T17:22:17.191Z,98667.91
2023-01-03T17:24:44.435Z,98503.94
2023-01-03T17:27:33.201Z,98724.44
2023-01-03T17:30:03.226Z,98721.25
2023-01-03T17:32:30.759Z,98725.78
2023-01-03T17:34:57.762Z,98596.72
2023-01-03T17:37:25.106Z,98657.44
2023-01-03T17:39:57.637Z,98734.31
2023-01-03T17:42:26.362Z,98653.97
2023-01-03T17:45:11.676Z,98751.22
2023-01-03T17:48:02.970Z,98751.47
2023-01-03T17:50:31.647Z,98736.03
2023-01-03T17:53:00.749Z,98708.06
2023-01-03T17:55:30.621Z,98762.78
2023-01-03T17:58:01.007Z,98758.72
2023-01-03T18:00:30.677Z,98761.56
2023-01-03T18:02:58.065Z,98743.75
2023-01-03T18:05:28.594Z,98561.03
2023-01-03T18:08:01.058Z,98751.97
2023-01-03T18:10:40.158Z,98640.25
2023-01-03T18:13:33.769Z,98752.34
2023-01-03T18:16:00.651Z,98751.69
2023-01-03T18:18:29.319Z,98754.47
2023-01-03T18:20:56.949Z,98588.41
2023-01-03T18:23:36.027Z,98752.19
2023-01-03T18:26:10.596Z,98761.84
2023-01-03T18:28:37.258Z,98546.84
2023-01-03T18:31:04.222Z,98617.81
2023-01-03T18:33:30.940Z,98557.53
2023-01-03T18:35:57.828Z,98759.13
2023-01-03T18:38:28.125Z,98772.50
2023-01-03T18:41:02.221Z,98757.28
2023-01-03T18:43:31.877Z,98759.03
2023-01-03T18:45:58.713Z,98763.47
2023-01-03T18:48:25.464Z,98691.19
2023-01-03T18:50:58.323Z,98725.06
2023-01-03T18:53:31.015Z,98769.53
2023-01-03T18:55:57.788Z,98750.94
2023-01-03T18:58:36.941Z,98747.50
2023-01-03T19:01:05.111Z,98768.94
2023-01-03T19:03:33.551Z,98770.41
2023-01-03T19:06:01.569Z,98762.63
2023-01-03T19:08:35.540Z,98777.31
2023-01-03T19:11:07.524Z,98769.66
2023-01-03T19:13:51.813Z,98607.47
2023-01-03T19:16:20.941Z,98613.88
2023-01-03T19:18:48.245Z,98761.75
2023-01-03T19:21:16.234Z,98775.13
2023-01-03T19:23:45.269Z,98527.50
2023-01-03T19:26:32.686Z,98771.72
2023-01-03T19:29:02.533Z,98754.22
2023-01-03T19:31:39.204Z,98645.91
2023-01-03T19:34:14.285Z,98772.28
2023-01-03T19:36:40.890Z,98545.47
2023-01-03T19:39:09.223Z,98612.94
2023-01-03T19:42:03.029Z,98656.09
2023-01-03T19:44:30.257Z,98728.06
2023-01-03T19:46:57.017Z,98565.91
2023-01-03T19:49:23.841Z,98747.66
2023-01-03T19:51:50.484Z,98612.09
2023-01-03T19:54:17.275Z,98746.72
2023-01-03T19:56:44.328Z,98637.41
2023-01-03T19:59:38.135Z,98774.94
2023-01-03T20:02:26.228Z,98763.03
2023-01-03T20:04:53.213Z,98675.41
2023-01-03T20:07:22.803Z,98762.03
2023-01-03T20:09:49.453Z,98678.72
2023-01-03T20:12:22.753Z,98762.53
2023-01-03T20:14:51.545Z,98769.56
2023-01-03T20:17:26.624Z,98760.13
2023-01-03T20:19:53.724Z,98763.59
2023-01-03T20:23:02.531Z,98748.78
2023-01-03T20:25:29.858Z,98702.28
2023-01-03T20:27:59.588Z,98759.75
2023-01-03T20:30:28.198Z,98737.69
2023-01-03T20:32:55.344Z,98760.84
2023-01-03T20:36:08.394Z,98709.22
2023-01-03T20:38:12.095Z,98705.91
2023-01-03T20:40:39.206Z,98655.47
2023-01-03T20:43:08.784Z,98744.00
2023-01-03T20:45:36.887Z,98705.81
2023-01-03T20:48:03.635Z,98756.38
2023-01-03T20:50:30.322Z,98649.34
2023-01-03T20:52:57.814Z,98754.75
2023-01-03T20:55:26.718Z,98759.00
2023-01-03T20:57:53.455Z,98761.59
2023-01-03T21:00:21.768Z,98738.09
2023-01-03T21:02:49.001Z,98745.47
2023-01-03T21:05:15.931Z,98754.84
2023-01-03T21:08:01.395Z,98632.63
2023-01-03T21:10:33.310Z,98752.50
2023-01-03T21:12:59.972Z,98602.78
2023-01-03T21:15:26.771Z,98748.47
2023-01-03T21:17:55.789Z,98747.69
2023-01-03T21:20:24.352Z,98752.88
2023-01-03T21:22:51.543Z,98747.88
2023-01-03T21:25:30.073Z,98745.34
2023-01-03T21:27:56.799Z,98748.06
2023-01-03T21:30:24.397Z,98613.44
2023-01-03T21:32:51.665Z,98663.06
2023-01-03T21:35:20.419Z,98755.25
2023-01-03T21:37:48.243Z,98623.25
2023-01-03T21:40:21.277Z,98720.31
2023-01-03T21:43:04.129Z,98747.81
2023-01-03T21:45:32.930Z,98747.88
2023-01-03T21:48:00.890Z,98666.19
2023-01-03T21:50:28.996Z,98623.16
2023-01-03T21:52:56.099Z,98729.16
2023-01-03T21:55:23.512Z,98731.75
2023-01-03T21:57:50.424Z,98728.47
2023-01-03T22:00:19.631Z,98727.69
2023-01-03T22:03:05.212Z,98672.56
2023-01-03T22:05:32.332Z,98712.16
2023-01-03T22:08:00.505Z,98683.63
2023-01-03T22:10:28.643Z,98666.03
2023-01-03T22:13:00.800Z,98723.75
2023-01-03T22:15:28.022Z,98667.81
2023-01-03T22:17:55.365Z,98726.50
2023-01-03T22:20:24.994Z,98719.63
2023-01-03T22:22:52.643Z,98589.25
2023-01-03T22:25:22.592Z,98668.84
2023-01-03T22:27:50.018Z,98581.09
2023-01-03T22:30:18.891Z,98719.94
2023-01-03T22:32:46.461Z,98673.41
2023-01-03T22:35:14.908Z,98582.78
2023-01-03T22:37:41.580Z,98721.22
2023-01-03T22:40:12.251Z,98732.50
2023-01-03T22:42:42.318Z,98677.28
2023-01-03T22:45:10.774Z,98602.84
2023-01-03T22:47:38.296Z,98727.53
2023-01-03T22:50:06.749Z,98730.06
2023-01-03T22:52:34.091Z,98723.75
2023-01-03T22:55:00.753Z,98729.69
2023-01-03T22:57:27.998Z,98620.88
2023-01-03T22:59:54.549Z,98538.38
2023-01-03T23:02:28.034Z,98338.75
2023-01-03T23:04:55.665Z,98728.91
2023-01-03T23:07:22.248Z,98604.00
2023-01-03T23:09:48.881Z,98714.44
2023-01-03T23:12:34.394Z,98728.38
2023-01-03T23:15:01.070Z,98723.03
2023-01-03T23:17:59.934Z,98659.03
2023-01-03T23:20:33.830Z,98708.78
2023-01-03T23:23:03.109Z,98698.34
2023-01-03T23:25:31.158Z,98719.75
2023-01-03T23:27:57.801Z,98693.91
2023-01-03T23:30:25.098Z,98704.97
2023-01-03T23:32:51.733Z,98700.38
2023-01-03T23:35:18.732Z,98631.66
2023-01-03T23:37:47.478Z,98704.59
2023-01-03T23:40:14.282Z,98696.66
2023-01-03T23:42:44.166Z,98609.53
2023-01-03T23:45:10.999Z,98689.75
2023-01-03T23:47:38.537Z,98677.66
2023-01-03T23:50:06.701Z,98680.16
2023-01-03T23:52:33.444Z,98693.88
2023-01-03T23:55:05.129Z,98517.13
2023-01-03T23:57:35.229Z,98582.22
